Time;durP1;ratioP1;P1;durP2;ratioP2;P2;SDS_P1;SDS_P2;PMS_P1;PMS_P2;Temp;Humidity;BMP_temperature;BMP_pressure;BME280_temperature;BME280_humidity;BME280_pressure;Samples;Min_cycle;Max_cycle;Signal;HPM_P1;HPM_P2
2022/05/24 00:01:38;;;;;;;23.50;12.70;;;14.50;99.90;;;;;;5032863;28;20199;-86
2022/05/24 00:04:03;;;;;;;22.33;12.40;;;14.50;99.90;;;;;;5032569;28;20184;-87
2022/05/24 00:06:31;;;;;;;19.67;13.07;;;14.60;99.90;;;;;;5032777;28;20181;-86
2022/05/24 00:08:58;;;;;;;22.23;13.33;;;14.40;99.90;;;;;;5032565;28;20179;-85
2022/05/24 00:11:23;;;;;;;19.53;13.53;;;14.50;99.90;;;;;;5033156;28;20202;-86
2022/05/24 00:13:49;;;;;;;21.97;14.33;;;14.50;99.90;;;;;;5031891;28;20207;-87
2022/05/24 00:16:15;;;;;;;20.50;14.13;;;14.40;99.90;;;;;;5032273;28;20223;-87
2022/05/24 00:18:41;;;;;;;24.97;16.10;;;14.40;99.90;;;;;;5032115;28;20170;-86
2022/05/24 00:21:06;;;;;;;25.73;15.70;;;14.50;99.90;;;;;;5032954;28;20207;-86
2022/05/24 00:23:33;;;;;;;23.67;15.03;;;14.50;99.90;;;;;;5031986;28;20188;-85
2022/05/24 00:26:15;;;;;;;25.57;16.20;;;14.50;99.90;;;;;;5032391;28;20547;-86
2022/05/24 00:28:40;;;;;;;22.57;15.47;;;14.50;99.90;;;;;;5032235;28;20208;-88
2022/05/24 00:31:06;;;;;;;24.97;15.97;;;14.40;99.90;;;;;;5032611;28;20194;-87
2022/05/24 00:33:34;;;;;;;24.40;15.90;;;14.50;99.90;;;;;;5031867;28;20209;-88
2022/05/24 00:36:00;;;;;;;28.00;15.40;;;14.40;99.90;;;;;;5030876;28;20546;-86
2022/05/24 00:38:29;;;;;;;26.83;15.70;;;14.40;99.90;;;;;;5031422;28;20176;-87
2022/05/24 00:41:17;;;;;;;26.07;15.63;;;14.30;99.90;;;;;;5031218;28;20236;-87
2022/05/24 00:43:57;;;;;;;25.40;15.63;;;14.40;99.90;;;;;;5031557;28;20291;-87
2022/05/24 00:46:29;;;;;;;22.77;15.43;;;14.40;99.90;;;;;;5031099;28;20165;-86
2022/05/24 00:49:03;;;;;;;24.83;15.73;;;14.40;99.90;;;;;;5031576;28;20169;-89
2022/05/24 00:51:38;;;;;;;30.10;16.33;;;14.40;99.90;;;;;;5031840;28;20285;-87
2022/05/24 00:54:04;;;;;;;25.87;15.67;;;14.40;99.90;;;;;;5031179;28;20212;-87
2022/05/24 00:56:48;;;;;;;26.70;15.27;;;14.40;99.90;;;;;;5031179;28;20177;-86
2022/05/24 00:59:55;;;;;;;21.50;15.57;;;14.40;99.90;;;;;;5031562;28;20638;-88
2022/05/24 01:02:22;;;;;;;23.83;14.97;;;14.40;99.90;;;;;;5023938;28;20181;-87
2022/05/24 01:04:47;;;;;;;24.07;15.23;;;14.40;99.90;;;;;;5031126;28;20181;-88
2022/05/24 01:07:13;;;;;;;22.77;15.73;;;14.40;99.90;;;;;;5031209;28;20176;-86
2022/05/24 01:09:50;;;;;;;25.03;15.70;;;14.30;99.90;;;;;;5031588;28;20650;-87
2022/05/24 01:12:26;;;;;;;26.07;16.70;;;14.40;99.90;;;;;;5030918;28;20223;-86
2022/05/24 01:14:57;;;;;;;30.43;16.70;;;14.50;99.90;;;;;;5030821;28;20240;-87
2022/05/24 01:17:23;;;;;;;28.43;18.07;;;14.40;99.90;;;;;;5031071;28;20196;-87
2022/05/24 01:19:49;;;;;;;24.40;16.70;;;14.40;99.90;;;;;;5031252;28;20173;-88
2022/05/24 01:22:21;;;;;;;31.23;19.20;;;14.40;99.90;;;;;;5030869;28;20535;-88
2022/05/24 01:25:18;;;;;;;28.33;19.10;;;14.40;99.90;;;;;;5030901;28;20181;-87
2022/05/24 01:27:43;;;;;;;30.30;19.00;;;14.50;99.90;;;;;;5025472;28;20189;-86
2022/05/24 01:30:10;;;;;;;29.83;19.00;;;14.50;99.90;;;;;;5031356;28;20243;-86
2022/05/24 01:38:09;;;;;;;32.83;19.20;;;14.40;99.90;;;;;;5032924;28;20208;-89
2022/05/24 01:40:35;;;;;;;31.27;18.67;;;14.40;99.90;;;;;;5031483;28;20198;-88
2022/05/24 01:43:01;;;;;;;28.80;18.30;;;14.40;99.90;;;;;;5031160;28;20177;-87
2022/05/24 01:45:36;;;;;;;28.77;17.30;;;14.40;99.90;;;;;;5030554;28;20333;-88
2022/05/24 01:48:07;;;;;;;31.20;18.87;;;14.40;99.90;;;;;;5031317;28;20199;-87
2022/05/24 01:50:34;;;;;;;38.00;19.60;;;14.50;99.90;;;;;;5032716;28;20206;-88
2022/05/24 01:53:10;;;;;;;34.20;19.23;;;14.40;99.90;;;;;;5034130;28;20192;-87
2022/05/24 01:55:42;;;;;;;32.50;19.30;;;14.40;99.90;;;;;;5036076;28;20228;-88
2022/05/24 01:58:11;;;;;;;27.90;17.90;;;14.40;99.90;;;;;;5037181;28;20177;-88
2022/05/24 02:00:40;;;;;;;33.03;18.77;;;14.40;99.90;;;;;;5035700;28;20201;-87
2022/05/24 02:03:06;;;;;;;34.50;19.80;;;14.40;99.90;;;;;;5035000;28;20177;-87
2022/05/24 02:05:38;;;;;;;34.33;19.47;;;14.50;99.90;;;;;;5034966;28;20177;-86
2022/05/24 02:08:08;;;;;;;31.40;18.60;;;14.40;99.90;;;;;;5034722;28;20251;-87
2022/05/24 02:10:50;;;;;;;37.00;20.27;;;14.50;99.90;;;;;;5035376;28;20636;-88
2022/05/24 02:13:33;;;;;;;35.83;19.07;;;14.50;99.90;;;;;;5034642;28;20173;-89
2022/05/24 02:16:03;;;;;;;37.03;19.90;;;14.50;99.90;;;;;;5036195;28;20186;-87
2022/05/24 02:18:29;;;;;;;32.93;19.57;;;14.40;99.90;;;;;;5035182;28;20660;-87
2022/05/24 02:20:55;;;;;;;36.27;20.13;;;14.40;99.90;;;;;;5036806;28;20201;-87
2022/05/24 02:23:21;;;;;;;37.73;21.60;;;14.40;99.90;;;;;;5036236;28;20169;-87
2022/05/24 02:25:54;;;;;;;37.00;21.23;;;14.40;99.90;;;;;;5035415;28;20181;-87
2022/05/24 02:28:24;;;;;;;38.17;21.17;;;14.40;99.90;;;;;;5036901;28;20592;-86
2022/05/24 02:30:53;;;;;;;35.83;20.70;;;14.40;99.90;;;;;;5035570;28;20194;-88
2022/05/24 02:33:20;;;;;;;39.93;21.47;;;14.40;99.90;;;;;;5035559;28;20189;-88
2022/05/24 02:35:46;;;;;;;34.77;20.70;;;14.40;99.90;;;;;;5034611;28;20247;-88
2022/05/24 02:38:13;;;;;;;40.77;21.27;;;14.40;99.90;;;;;;5034852;28;20607;-88
2022/05/24 02:43:23;;;;;;;34.83;21.27;;;14.40;99.90;;;;;;5036957;28;20165;-86
2022/05/24 02:45:48;;;;;;;35.87;21.20;;;14.40;99.90;;;;;;5034072;28;20312;-87
2022/05/24 02:48:14;;;;;;;34.30;21.23;;;14.40;99.90;;;;;;5035142;28;20618;-86
2022/05/24 02:50:40;;;;;;;41.77;22.83;;;14.40;99.90;;;;;;5035120;28;20198;-87
2022/05/24 02:53:06;;;;;;;42.13;22.53;;;14.50;99.90;;;;;;5034914;28;20717;-88
2022/05/24 02:55:31;;;;;;;42.50;23.27;;;14.50;99.90;;;;;;5034425;28;20355;-88
2022/05/24 02:57:57;;;;;;;46.03;23.17;;;14.40;99.90;;;;;;5035648;28;20180;-86
2022/05/24 03:00:25;;;;;;;39.30;24.23;;;14.40;99.90;;;;;;5034447;28;20860;-87
2022/05/24 03:02:52;;;;;;;40.43;23.50;;;14.40;99.90;;;;;;5034282;28;20166;-87
2022/05/24 03:05:18;;;;;;;43.77;24.50;;;14.50;99.90;;;;;;5034208;28;20181;-87
2022/05/24 03:10:30;;;;;;;49.67;25.67;;;14.40;99.90;;;;;;5036398;28;20243;-86
2022/05/24 03:15:43;;;;;;;44.67;25.60;;;14.50;99.90;;;;;;5035478;28;20269;-87
2022/05/24 03:18:11;;;;;;;49.00;27.20;;;14.40;99.90;;;;;;5034698;28;20184;-87
2022/05/24 03:20:37;;;;;;;46.20;26.73;;;14.40;99.90;;;;;;5034124;28;20227;-86
2022/05/24 03:23:04;;;;;;;48.97;27.47;;;14.50;99.90;;;;;;5033135;28;20173;-87
2022/05/24 03:25:32;;;;;;;50.83;27.57;;;14.40;99.90;;;;;;5033945;28;20174;-87
2022/05/24 03:28:03;;;;;;;52.90;27.10;;;14.40;99.90;;;;;;5033752;28;20535;-87
2022/05/24 03:30:30;;;;;;;51.43;28.47;;;14.40;99.90;;;;;;5033118;28;20197;-87
2022/05/24 03:32:56;;;;;;;50.67;27.00;;;14.50;99.90;;;;;;5033318;28;20375;-86
2022/05/24 03:35:23;;;;;;;47.30;27.60;;;14.40;99.90;;;;;;5033280;28;20304;-86
2022/05/24 03:37:48;;;;;;;53.07;30.10;;;14.40;99.90;;;;;;5033312;28;20379;-87
2022/05/24 03:40:14;;;;;;;48.77;29.70;;;14.40;99.90;;;;;;5033346;28;20277;-87
2022/05/24 03:42:40;;;;;;;48.50;28.83;;;14.40;99.90;;;;;;5033295;28;20170;-87
2022/05/24 03:45:09;;;;;;;51.17;27.57;;;14.40;99.90;;;;;;5032567;28;20550;-87
2022/05/24 03:47:37;;;;;;;47.27;27.87;;;14.50;99.90;;;;;;5032679;28;20178;-88
2022/05/24 03:50:08;;;;;;;46.67;26.30;;;14.50;99.90;;;;;;5032414;28;20229;-88
2022/05/24 03:52:34;;;;;;;47.00;26.70;;;14.60;99.90;;;;;;5032011;28;20201;-88
2022/05/24 03:54:59;;;;;;;43.73;26.27;;;14.60;99.90;;;;;;5032155;28;20236;-87
2022/05/24 04:00:12;;;;;;;45.07;25.27;;;14.60;99.90;;;;;;5033689;28;20165;-87
2022/05/24 04:02:37;;;;;;;42.70;26.63;;;14.50;99.90;;;;;;5031928;28;20186;-89
2022/05/24 04:05:03;;;;;;;43.23;25.67;;;14.60;99.90;;;;;;5032671;28;20174;-87
2022/05/24 04:07:29;;;;;;;38.63;23.60;;;14.50;99.90;;;;;;5032182;28;20181;-88
2022/05/24 04:09:55;;;;;;;42.20;23.03;;;14.60;99.90;;;;;;5033356;28;20176;-86
2022/05/24 04:12:20;;;;;;;37.00;22.43;;;14.70;99.90;;;;;;5032060;28;20288;-87
2022/05/24 04:14:46;;;;;;;40.93;23.57;;;14.70;99.90;;;;;;5031554;28;20689;-88
2022/05/24 04:17:12;;;;;;;41.50;23.47;;;14.60;99.90;;;;;;5031505;28;20181;-87
2022/05/24 04:19:37;;;;;;;36.90;22.60;;;14.60;99.90;;;;;;5032730;28;20186;-88
2022/05/24 04:22:03;;;;;;;35.63;21.93;;;14.70;99.90;;;;;;5031785;28;20198;-87
2022/05/24 04:24:29;;;;;;;33.20;19.00;;;14.60;99.90;;;;;;5032094;28;20655;-87
2022/05/24 04:26:54;;;;;;;35.97;21.30;;;14.50;99.90;;;;;;5031858;28;20178;-88
2022/05/24 04:29:20;;;;;;;33.17;19.50;;;14.60;99.90;;;;;;5031812;28;20550;-87
2022/05/24 04:31:46;;;;;;;34.80;20.93;;;14.70;99.90;;;;;;5032054;28;20202;-87
2022/05/24 04:34:11;;;;;;;36.07;21.70;;;14.70;99.90;;;;;;5031848;28;20716;-88
2022/05/24 04:36:37;;;;;;;33.97;21.10;;;14.70;99.90;;;;;;5031763;28;20272;-88
2022/05/24 04:39:03;;;;;;;36.40;21.83;;;14.60;99.90;;;;;;5031500;28;20181;-87
2022/05/24 04:44:13;;;;;;;33.03;18.30;;;14.70;99.90;;;;;;5033235;28;20650;-86
2022/05/24 04:49:23;;;;;;;22.80;15.77;;;14.70;99.90;;;;;;5033311;28;20176;-87
2022/05/24 04:51:53;;;;;;;22.90;15.37;;;14.60;99.90;;;;;;5031765;28;20193;-87
2022/05/24 04:54:19;;;;;;;24.60;14.40;;;14.60;99.90;;;;;;5031432;28;20229;-86
2022/05/24 04:56:46;;;;;;;19.40;11.37;;;14.60;99.90;;;;;;5031496;28;20635;-86
2022/05/24 04:59:12;;;;;;;22.27;11.80;;;14.50;99.90;;;;;;5031370;28;20252;-87
2022/05/24 05:01:38;;;;;;;18.03;10.03;;;14.50;99.90;;;;;;5031413;28;20574;-84
2022/05/24 05:04:03;;;;;;;13.27;9.60;;;14.40;99.90;;;;;;5031429;28;20173;-86
2022/05/24 05:06:29;;;;;;;16.73;8.67;;;14.50;99.90;;;;;;5032090;28;20174;-88
2022/05/24 05:08:54;;;;;;;16.63;9.30;;;14.50;99.90;;;;;;5032041;28;20177;-87
2022/05/24 05:11:20;;;;;;;13.70;8.30;;;14.40;99.90;;;;;;5031880;28;20609;-84
2022/05/24 05:13:47;;;;;;;14.03;8.10;;;14.30;99.90;;;;;;5032230;28;20205;-82
2022/05/24 05:16:13;;;;;;;17.27;8.30;;;14.20;99.90;;;;;;5031909;28;20551;-82
2022/05/24 05:18:38;;;;;;;17.43;8.07;;;14.30;99.90;;;;;;5032496;28;20187;-84
2022/05/24 05:21:04;;;;;;;9.83;7.20;;;14.20;99.90;;;;;;5031652;28;20194;-83
2022/05/24 05:23:30;;;;;;;12.60;7.93;;;14.30;99.90;;;;;;5031271;28;20189;-84
2022/05/24 05:25:55;;;;;;;16.93;7.00;;;14.30;99.90;;;;;;5031007;28;20224;-84
2022/05/24 05:28:21;;;;;;;11.97;6.87;;;14.40;99.90;;;;;;5035006;28;20174;-84
2022/05/24 05:33:31;;;;;;;15.73;6.00;;;14.60;99.90;;;;;;5036612;28;20622;-84
2022/05/24 05:35:57;;;;;;;11.43;5.70;;;14.80;99.90;;;;;;5034603;28;20712;-84
2022/05/24 05:38:23;;;;;;;10.80;5.73;;;14.80;99.90;;;;;;5035601;28;20178;-83
2022/05/24 05:40:52;;;;;;;10.73;6.03;;;14.70;99.90;;;;;;5035202;28;20573;-84
2022/05/24 05:43:18;;;;;;;12.87;5.97;;;14.70;99.90;;;;;;5034561;28;20182;-84
2022/05/24 05:45:54;;;;;;;11.93;5.53;;;14.60;99.90;;;;;;5034679;28;20272;-83
2022/05/24 05:48:20;;;;;;;13.57;5.70;;;14.60;99.90;;;;;;5035349;28;20267;-82
2022/05/24 05:50:47;;;;;;;11.67;5.20;;;14.40;99.90;;;;;;5034143;28;20197;-84
2022/05/24 05:53:13;;;;;;;11.33;4.87;;;14.30;99.90;;;;;;5034480;28;20658;-83
2022/05/24 05:55:41;;;;;;;14.30;5.60;;;14.30;99.90;;;;;;5034509;28;20197;-84
2022/05/24 05:58:07;;;;;;;9.83;5.07;;;14.30;99.90;;;;;;5034880;28;20554;-83
2022/05/24 06:00:32;;;;;;;8.90;5.50;;;14.10;99.90;;;;;;5034447;28;20674;-84
2022/05/24 06:02:58;;;;;;;10.53;5.37;;;14.10;99.90;;;;;;5034319;28;20268;-83
2022/05/24 06:05:24;;;;;;;16.63;5.53;;;14.20;99.90;;;;;;5034611;28;20232;-83
2022/05/24 06:07:49;;;;;;;13.10;5.43;;;14.20;99.90;;;;;;5034730;28;20269;-82
2022/05/24 06:10:18;;;;;;;13.10;5.90;;;14.10;99.90;;;;;;5034088;28;20204;-84
2022/05/24 06:12:44;;;;;;;14.10;5.83;;;14.10;99.90;;;;;;5033954;28;20181;-84
2022/05/24 06:15:10;;;;;;;15.50;5.87;;;14.10;99.90;;;;;;5033782;28;20213;-83
2022/05/24 06:17:46;;;;;;;8.63;5.33;;;14.10;99.90;;;;;;5033164;28;20723;-84
2022/05/24 06:20:16;;;;;;;11.73;5.87;;;14.10;99.90;;;;;;5032849;28;20202;-84
2022/05/24 06:22:42;;;;;;;13.60;5.50;;;14.00;99.90;;;;;;5033327;28;20177;-84
2022/05/24 06:25:09;;;;;;;13.67;5.53;;;14.00;99.90;;;;;;5034144;28;20539;-84
2022/05/24 06:27:35;;;;;;;10.20;5.03;;;14.00;99.90;;;;;;5034765;28;20177;-84
2022/05/24 06:30:01;;;;;;;11.10;6.83;;;13.90;99.90;;;;;;5034258;28;20185;-84
2022/05/24 06:32:27;;;;;;;9.23;5.47;;;14.00;99.90;;;;;;5033786;28;20213;-82
2022/05/24 06:34:53;;;;;;;15.03;5.97;;;13.90;99.90;;;;;;5033195;28;20244;-83
2022/05/24 06:37:22;;;;;;;12.53;5.50;;;13.80;99.90;;;;;;5032928;28;20173;-83
2022/05/24 06:39:48;;;;;;;10.50;5.13;;;13.80;99.90;;;;;;5033861;28;20177;-84
2022/05/24 06:42:15;;;;;;;11.33;5.00;;;13.90;99.90;;;;;;5033354;28;20285;-83
2022/05/24 06:44:40;;;;;;;10.43;5.53;;;13.80;99.90;;;;;;5033470;28;20199;-82
2022/05/24 06:47:06;;;;;;;12.17;6.00;;;13.80;99.90;;;;;;5034622;28;20178;-83
2022/05/24 06:49:32;;;;;;;11.67;6.07;;;13.90;99.90;;;;;;5033457;28;20180;-81
2022/05/24 06:51:58;;;;;;;9.07;5.10;;;13.80;99.90;;;;;;5034140;28;20216;-83
2022/05/24 06:54:24;;;;;;;9.20;4.97;;;13.80;99.90;;;;;;5033557;28;20217;-81
2022/05/24 06:56:50;;;;;;;7.23;5.00;;;13.80;99.90;;;;;;5033580;28;20197;-84
2022/05/24 07:04:44;;;;;;;12.80;5.57;;;13.90;99.90;;;;;;5034861;28;20668;-82
2022/05/24 07:07:10;;;;;;;13.93;4.93;;;13.90;99.90;;;;;;5033425;28;20175;-84
2022/05/24 07:09:37;;;;;;;7.47;5.47;;;13.80;99.90;;;;;;5034038;28;20232;-85
2022/05/24 07:12:04;;;;;;;10.23;4.97;;;13.80;99.90;;;;;;5033609;28;20240;-86
2022/05/24 07:14:32;;;;;;;12.13;5.00;;;13.80;99.90;;;;;;5032986;28;20567;-84
2022/05/24 07:16:57;;;;;;;9.80;5.30;;;13.70;99.90;;;;;;5032701;28;20204;-83
2022/05/24 07:19:25;;;;;;;7.27;5.17;;;13.80;99.90;;;;;;5033057;28;20636;-83
2022/05/24 07:21:50;;;;;;;8.90;5.17;;;13.70;99.90;;;;;;5032847;28;20368;-83
2022/05/24 07:24:16;;;;;;;8.30;4.83;;;13.60;99.90;;;;;;5032742;28;20180;-85
2022/05/24 07:26:43;;;;;;;9.37;4.70;;;13.60;99.90;;;;;;5032889;28;20209;-85
2022/05/24 07:29:09;;;;;;;10.27;5.03;;;13.70;99.90;;;;;;5032934;28;20173;-85
2022/05/24 07:31:34;;;;;;;8.60;4.77;;;13.70;99.90;;;;;;5032739;28;20203;-84
2022/05/24 07:34:01;;;;;;;15.57;5.23;;;13.50;99.90;;;;;;5032798;28;20223;-84
2022/05/24 07:36:27;;;;;;;10.10;5.50;;;13.60;99.90;;;;;;5033682;28;20173;-85
2022/05/24 07:38:53;;;;;;;9.63;5.20;;;13.40;99.90;;;;;;5032691;28;20227;-84
2022/05/24 07:46:46;;;;;;;12.30;5.30;;;13.50;99.90;;;;;;5034057;28;20657;-83
2022/05/24 07:49:12;;;;;;;12.30;5.40;;;13.30;99.90;;;;;;5032316;28;20267;-84
2022/05/24 07:51:38;;;;;;;11.33;5.30;;;13.40;99.90;;;;;;5032041;28;20231;-83
2022/05/24 07:54:04;;;;;;;10.23;5.47;;;13.30;99.90;;;;;;5031941;28;20283;-84
2022/05/24 07:56:29;;;;;;;13.17;5.30;;;13.50;99.90;;;;;;5032183;28;20174;-84
2022/05/24 07:58:55;;;;;;;9.10;5.03;;;13.50;99.90;;;;;;5032251;28;20179;-83
2022/05/24 08:01:23;;;;;;;6.23;4.57;;;13.50;99.90;;;;;;5031666;28;20292;-83
2022/05/24 08:03:49;;;;;;;11.83;4.60;;;13.60;99.90;;;;;;5032004;28;20651;-84
2022/05/24 08:06:15;;;;;;;12.20;4.50;;;13.60;99.90;;;;;;5031963;28;20720;-84
2022/05/24 08:08:41;;;;;;;9.07;4.10;;;13.70;99.90;;;;;;5032058;28;20271;-83
2022/05/24 08:11:07;;;;;;;6.60;3.30;;;13.60;99.90;;;;;;5031254;28;20197;-83
2022/05/24 08:13:33;;;;;;;8.17;3.93;;;13.50;99.90;;;;;;5031992;28;20184;-84
2022/05/24 08:15:59;;;;;;;9.43;4.30;;;13.50;99.90;;;;;;5031824;28;20211;-83
2022/05/24 08:18:24;;;;;;;11.87;3.80;;;13.60;99.90;;;;;;5031734;28;20180;-84
2022/05/24 08:20:52;;;;;;;10.57;3.43;;;13.60;99.90;;;;;;5032032;28;20338;-83
2022/05/24 08:23:19;;;;;;;11.03;3.50;;;13.50;99.90;;;;;;5031690;28;20701;-83
2022/05/24 08:25:45;;;;;;;13.27;3.60;;;13.50;99.90;;;;;;5031529;28;20181;-83
2022/05/24 08:28:11;;;;;;;5.90;3.20;;;13.70;99.90;;;;;;5031601;28;20181;-82
2022/05/24 08:30:38;;;;;;;7.73;3.33;;;13.60;99.90;;;;;;5031498;28;20201;-83
2022/05/24 08:33:04;;;;;;;9.63;3.07;;;13.60;99.90;;;;;;5031267;28;20651;-83
2022/05/24 08:35:35;;;;;;;10.93;3.43;;;13.80;99.90;;;;;;5032770;28;20569;-83
2022/05/24 08:38:02;;;;;;;10.60;3.20;;;13.90;99.90;;;;;;5032498;28;20638;-84
2022/05/24 08:40:28;;;;;;;7.70;4.10;;;14.00;99.90;;;;;;5031200;28;20285;-83
2022/05/24 08:43:12;;;;;;;7.93;4.27;;;14.20;99.90;;;;;;5031291;28;20646;-82
2022/05/24 08:48:51;;;;;;;10.87;5.03;;;14.80;99.90;;;;;;5032596;28;20593;-83
2022/05/24 08:51:22;;;;;;;7.07;4.53;;;15.10;99.90;;;;;;5031277;28;20200;-83
2022/05/24 08:53:51;;;;;;;8.93;4.90;;;14.90;99.90;;;;;;5031174;28;20662;-82
2022/05/24 08:56:55;;;;;;;7.70;5.40;;;15.10;99.90;;;;;;5031184;28;20201;-82
2022/05/24 08:59:29;;;;;;;8.17;4.90;;;15.20;99.90;;;;;;5024854;28;20182;-83
2022/05/24 09:01:56;;;;;;;9.53;5.23;;;15.30;99.90;;;;;;5029850;28;20198;-82
2022/05/24 09:04:22;;;;;;;6.40;4.47;;;15.40;99.90;;;;;;5030922;28;20235;-82
2022/05/24 09:07:22;;;;;;;7.47;4.07;;;15.70;99.90;;;;;;5030754;28;20557;-83
2022/05/24 09:10:09;;;;;;;8.07;3.87;;;15.40;99.90;;;;;;5030601;28;20180;-82
2022/05/24 09:13:04;;;;;;;6.67;3.87;;;15.60;99.90;;;;;;5030644;28;20181;-82
2022/05/24 09:15:53;;;;;;;6.83;4.20;;;15.00;99.90;;;;;;5011823;28;20268;-83
2022/05/24 09:18:25;;;;;;;6.23;3.37;;;15.60;99.90;;;;;;5031441;28;20180;-83
2022/05/24 09:20:51;;;;;;;6.07;2.83;;;16.20;99.90;;;;;;5031140;28;20193;-83
2022/05/24 09:23:29;;;;;;;6.67;3.17;;;16.00;99.90;;;;;;5031149;28;20233;-83
2022/05/24 09:26:02;;;;;;;8.20;3.10;;;16.80;99.90;;;;;;5030894;28;20174;-83
2022/05/24 09:28:41;;;;;;;5.73;2.83;;;16.80;99.90;;;;;;5030987;28;20170;-84
2022/05/24 09:31:07;;;;;;;3.77;2.37;;;16.10;99.90;;;;;;5030444;28;20662;-83
2022/05/24 09:33:40;;;;;;;7.17;2.37;;;15.80;99.90;;;;;;5030889;28;20232;-82
2022/05/24 09:36:06;;;;;;;5.80;2.47;;;16.00;99.90;;;;;;5030854;28;20213;-83
2022/05/24 09:38:39;;;;;;;7.23;2.30;;;16.90;99.90;;;;;;5030627;28;20185;-83
2022/05/24 09:41:18;;;;;;;5.97;2.47;;;16.60;99.90;;;;;;5031903;28;20190;-81
2022/05/24 09:44:04;;;;;;;5.93;2.40;;;16.10;99.90;;;;;;5031018;28;20260;-82
2022/05/24 09:46:30;;;;;;;4.53;2.40;;;16.10;99.90;;;;;;5030653;28;20266;-83
2022/05/24 09:49:17;;;;;;;5.70;2.73;;;15.80;99.90;;;;;;5031848;28;20274;-82
2022/05/24 09:51:44;;;;;;;2.60;2.07;;;15.70;99.90;;;;;;5033579;28;20198;-83
2022/05/24 09:54:22;;;;;;;4.30;2.10;;;15.60;99.90;;;;;;5034717;28;20194;-83
2022/05/24 09:57:01;;;;;;;4.23;1.87;;;15.60;99.90;;;;;;5035760;28;20178;-83
2022/05/24 09:59:28;;;;;;;3.07;2.20;;;15.70;99.90;;;;;;5036085;28;20650;-86
2022/05/24 10:01:54;;;;;;;5.93;2.00;;;15.90;99.90;;;;;;5034343;28;20191;-83
2022/05/24 10:04:25;;;;;;;4.77;1.80;;;16.10;99.90;;;;;;5035925;28;20254;-85
2022/05/24 10:07:02;;;;;;;3.83;1.73;;;16.00;99.90;;;;;;5035583;28;20189;-84
2022/05/24 10:09:40;;;;;;;3.50;1.90;;;15.80;99.90;;;;;;5035014;28;20272;-84
2022/05/24 10:12:18;;;;;;;4.73;2.00;;;15.80;99.90;;;;;;5034741;28;20285;-84
2022/05/24 10:15:03;;;;;;;5.97;2.30;;;15.70;99.90;;;;;;5037230;28;20296;-84
2022/05/24 10:17:55;;;;;;;5.80;2.00;;;15.60;99.90;;;;;;5039815;28;20174;-83
2022/05/24 10:20:49;;;;;;;3.67;1.67;;;16.00;99.90;;;;;;5038074;28;20194;-86
2022/05/24 10:23:57;;;;;;;3.97;1.80;;;16.90;99.90;;;;;;5039043;28;20703;-83
2022/05/24 10:26:51;;;;;;;5.30;1.60;;;17.50;99.90;;;;;;5039972;28;20304;-84
2022/05/24 10:29:42;;;;;;;3.60;1.57;;;18.30;99.90;;;;;;5039559;28;20181;-84
2022/05/24 10:38:54;;;;;;;2.53;1.20;;;16.70;99.90;;;;;;5040041;28;20180;-82
2022/05/24 10:41:26;;;;;;;2.80;1.10;;;16.60;99.90;;;;;;5037944;28;20566;-84
2022/05/24 10:44:15;;;;;;;3.13;1.20;;;16.50;99.90;;;;;;5038533;28;20564;-82
2022/05/24 10:46:48;;;;;;;4.67;1.20;;;16.30;99.90;;;;;;5038200;28;20543;-83
2022/05/24 10:49:25;;;;;;;4.93;1.57;;;16.10;99.90;;;;;;5038642;28;20170;-83
2022/05/24 10:52:04;;;;;;;2.50;1.17;;;16.20;99.90;;;;;;5037436;28;20557;-83
2022/05/24 10:54:53;;;;;;;5.17;1.30;;;16.00;99.90;;;;;;5036668;28;20209;-83
2022/05/24 10:57:21;;;;;;;2.40;1.03;;;15.90;99.90;;;;;;5036793;28;20712;-84
2022/05/24 11:00:07;;;;;;;9.60;1.30;;;16.10;99.90;;;;;;5036712;28;20178;-83
2022/05/24 11:02:41;;;;;;;3.73;1.03;;;16.00;99.90;;;;;;5036903;28;20178;-81
2022/05/24 11:05:24;;;;;;;2.20;1.00;;;16.50;99.90;;;;;;5037762;28;20184;-81
2022/05/24 11:07:58;;;;;;;2.97;1.10;;;17.70;99.90;;;;;;5038890;28;20185;-84
2022/05/24 11:10:34;;;;;;;5.53;1.43;;;18.50;99.90;;;;;;5036791;28;20661;-83
2022/05/24 11:13:12;;;;;;;3.07;1.30;;;18.80;99.90;;;;;;5036446;28;20649;-83
2022/05/24 11:15:56;;;;;;;3.87;1.20;;;18.70;99.90;;;;;;5035556;28;20594;-81
2022/05/24 11:18:25;;;;;;;1.77;1.10;;;18.60;99.90;;;;;;5037778;28;20178;-83
2022/05/24 11:21:14;;;;;;;2.50;1.40;;;17.80;99.90;;;;;;5036625;28;20186;-83
2022/05/24 11:23:57;;;;;;;7.97;1.27;;;17.80;99.90;;;;;;5029502;28;20229;-83
2022/05/24 11:26:30;;;;;;;2.27;1.60;;;18.00;99.90;;;;;;5036658;28;20661;-83
2022/05/24 11:29:18;;;;;;;3.37;1.50;;;19.00;99.90;;;;;;5037723;28;20631;-83
2022/05/24 11:31:51;;;;;;;3.17;1.43;;;19.10;99.90;;;;;;5036828;28;20197;-83
2022/05/24 11:34:35;;;;;;;6.13;1.60;;;19.60;99.90;;;;;;5036881;28;20184;-82
2022/05/24 11:37:00;;;;;;;5.10;1.80;;;19.80;99.90;;;;;;5037256;28;20253;-82
2022/05/24 11:39:42;;;;;;;4.90;1.65;;;19.30;99.90;;;;;;5036862;28;20178;-83
2022/05/24 11:42:33;;;;;;;5.65;1.60;;;19.90;99.90;;;;;;5036829;28;20194;-83
2022/05/24 11:45:20;;;;;;;5.80;1.70;;;19.60;99.90;;;;;;5036296;28;20650;-81
2022/05/24 11:47:46;;;;;;;2.45;1.70;;;18.80;99.90;;;;;;5035779;28;20182;-82
2022/05/24 11:50:30;;;;;;;3.30;1.60;;;19.40;99.90;;;;;;5037610;28;20181;-83
2022/05/24 11:53:05;;;;;;;5.50;1.83;;;19.50;99.90;;;;;;5037112;28;20194;-83
2022/05/24 11:55:41;;;;;;;2.67;1.98;;;19.20;99.90;;;;;;5038115;28;20220;-80
2022/05/24 11:58:19;;;;;;;4.05;2.15;;;19.60;99.90;;;;;;5038819;28;20295;-84
2022/05/24 12:00:57;;;;;;;2.97;1.80;;;19.40;99.90;;;;;;5037280;28;20689;-82
2022/05/24 12:09:26;;;;;;;1.80;1.50;;;19.40;99.90;;;;;;5038617;28;20177;-83
2022/05/24 12:12:27;;;;;;;4.45;1.83;;;19.20;99.90;;;;;;5036850;28;20205;-83
2022/05/24 12:15:12;;;;;;;3.90;1.60;;;18.50;99.90;;;;;;5037051;28;20209;-85
2022/05/24 12:17:38;;;;;;;4.00;1.80;;;18.20;99.90;;;;;;5037663;28;20179;-84
2022/05/24 12:20:25;;;;;;;2.27;1.30;;;18.40;99.90;;;;;;5037753;28;20526;-84
2022/05/24 12:23:14;;;;;;;2.53;1.30;;;18.50;99.90;;;;;;5037868;28;20639;-83
2022/05/24 12:26:19;;;;;;;2.40;1.30;;;19.00;99.90;;;;;;5038363;28;20519;-84
2022/05/24 12:28:52;;;;;;;2.43;1.30;;;18.70;99.90;;;;;;5037458;28;20166;-83
2022/05/24 12:31:18;;;;;;;2.07;1.40;;;18.50;99.90;;;;;;5035582;28;20190;-83
2022/05/24 12:33:49;;;;;;;2.40;1.47;;;18.30;99.90;;;;;;5035461;28;20563;-84
2022/05/24 12:36:44;;;;;;;1.57;1.47;;;18.40;99.90;;;;;;5035313;28;20283;-84
2022/05/24 12:39:16;;;;;;;2.73;1.30;;;18.50;99.90;;;;;;5037239;28;20180;-82
2022/05/24 12:41:59;;;;;;;5.10;1.60;;;18.50;99.90;;;;;;5037107;28;20193;-83
2022/05/24 12:44:33;;;;;;;2.50;1.77;;;19.30;99.90;;;;;;5037091;28;20174;-84
2022/05/24 12:47:13;;;;;;;3.00;1.70;;;19.30;99.90;;;;;;5037814;28;20174;-83
2022/05/24 12:49:48;;;;;;;3.33;2.20;;;19.30;99.90;;;;;;5035109;28;20174;-83
2022/05/24 12:52:27;;;;;;;4.73;2.90;;;19.20;99.90;;;;;;5033258;28;20190;-84
2022/05/24 12:54:54;;;;;;;3.13;2.80;;;18.70;99.90;;;;;;5034358;28;20209;-83
2022/05/24 12:57:35;;;;;;;5.03;3.30;;;18.60;99.90;;;;;;5020179;28;20225;-81
2022/05/24 13:00:08;;;;;;;4.63;3.40;;;18.90;99.50;;;;;;5034509;28;20546;-85
2022/05/24 13:02:47;;;;;;;5.73;3.83;;;18.90;99.80;;;;;;5033323;28;20174;-84
2022/05/24 13:05:25;;;;;;;6.67;3.93;;;19.20;99.90;;;;;;5033982;28;20197;-84
2022/05/24 13:07:50;;;;;;;6.07;4.50;;;19.00;99.10;;;;;;5035140;28;20182;-85
2022/05/24 13:10:19;;;;;;;7.83;4.80;;;18.80;99.90;;;;;;5034241;28;20569;-81
2022/05/24 13:12:46;;;;;;;4.93;4.53;;;19.20;99.90;;;;;;5033541;28;20272;-84
2022/05/24 13:15:17;;;;;;;5.77;4.37;;;19.10;97.70;;;;;;5034250;28;20198;-85
2022/05/24 13:17:44;;;;;;;5.93;4.13;;;18.80;98.90;;;;;;5034633;28;20589;-84
2022/05/24 13:20:19;;;;;;;4.60;4.13;;;18.90;98.30;;;;;;5033711;28;20663;-83
2022/05/24 13:22:53;;;;;;;6.27;4.07;;;19.00;99.40;;;;;;5033471;28;20173;-83
2022/05/24 13:25:24;;;;;;;5.00;4.30;;;19.10;98.70;;;;;;5033758;28;20280;-83
2022/05/24 13:27:54;;;;;;;7.30;4.87;;;19.00;99.80;;;;;;5035916;28;20194;-83
2022/05/24 13:33:48;;;;;;;7.60;5.40;;;18.20;99.50;;;;;;5035108;28;20169;-83
2022/05/24 13:36:18;;;;;;;11.63;5.50;;;18.10;99.90;;;;;;5034948;28;20210;-83
2022/05/24 13:38:46;;;;;;;6.10;5.50;;;17.90;99.90;;;;;;5034912;28;20232;-85
2022/05/24 13:41:24;;;;;;;6.93;6.10;;;17.90;99.90;;;;;;5033092;28;20186;-84
2022/05/24 13:44:07;;;;;;;7.97;7.10;;;17.80;99.90;;;;;;5032902;28;20658;-84
2022/05/24 13:47:07;;;;;;;9.77;7.20;;;17.70;99.90;;;;;;5033923;28;20650;-84
2022/05/24 13:49:43;;;;;;;8.23;7.50;;;17.70;99.90;;;;;;5039306;28;20189;-83
2022/05/24 13:52:23;;;;;;;13.17;8.37;;;18.30;99.90;;;;;;5038779;28;20193;-83
2022/05/24 13:54:52;;;;;;;9.60;8.60;;;18.50;99.90;;;;;;5039406;28;20232;-83